createdAt,value
2022-12-01T00:01:24.388Z,77.28
2022-12-01T00:03:51.467Z,72.63
2022-12-01T00:06:21.491Z,76.40
2022-12-01T00:09:12.981Z,80.30
2022-12-01T00:11:42.367Z,72.57
2022-12-01T00:14:09.445Z,81.27
2022-12-01T00:16:36.607Z,76.50
2022-12-01T00:19:03.751Z,75.90
2022-12-01T00:21:30.808Z,75.77
2022-12-01T00:23:58.359Z,71.33
2022-12-01T00:26:27.054Z,76.50
2022-12-01T00:28:57.400Z,78.73
2022-12-01T00:31:25.304Z,72.67
2022-12-01T00:33:52.848Z,72.73
2022-12-01T00:36:20.357Z,77.40
2022-12-01T00:38:47.991Z,81.93
2022-12-01T00:41:15.188Z,80.90
2022-12-01T00:43:42.382Z,76.73
2022-12-01T00:46:09.756Z,69.90
2022-12-01T00:48:37.299Z,86.50
2022-12-01T00:51:04.731Z,78.40
2022-12-01T00:53:32.469Z,84.17
2022-12-01T00:55:59.790Z,78.73
2022-12-01T00:58:26.823Z,75.40
2022-12-01T01:00:59.949Z,82.17
2022-12-01T01:03:28.802Z,82.07
2022-12-01T01:05:55.869Z,85.63
2022-12-01T01:08:22.941Z,78.70
2022-12-01T01:10:50.039Z,81.57
2022-12-01T01:13:18.957Z,75.70
2022-12-01T01:15:46.180Z,78.07
2022-12-01T01:18:13.300Z,82.13
2022-12-01T01:20:40.607Z,75.27
2022-12-01T01:23:07.699Z,78.73
2022-12-01T01:25:34.742Z,79.43
2022-12-01T01:28:01.984Z,75.03
2022-12-01T01:30:29.126Z,83.20
2022-12-01T01:32:56.198Z,86.30
2022-12-01T01:35:23.309Z,73.37
2022-12-01T01:37:50.998Z,81.17
2022-12-01T01:40:18.831Z,75.90
2022-12-01T01:42:46.110Z,74.97
2022-12-01T01:45:29.705Z,73.90
2022-12-01T01:48:00.047Z,77.50
2022-12-01T01:50:29.214Z,75.10
2022-12-01T01:53:02.985Z,76.97
2022-12-01T01:55:32.158Z,76.63
2022-12-01T01:58:00.085Z,73.93
2022-12-01T02:00:27.485Z,76.57
2022-12-01T02:02:57.234Z,81.60
2022-12-01T02:05:29.383Z,77.73
2022-12-01T02:07:58.689Z,75.70
2022-12-01T02:10:58.720Z,81.33
2022-12-01T02:13:43.329Z,73.47
2022-12-01T02:16:26.145Z,83.70
2022-12-01T02:19:14.183Z,72.50
2022-12-01T02:22:01.911Z,74.10
2022-12-01T02:25:01.789Z,78.90
2022-12-01T02:27:54.482Z,76.23
2022-12-01T02:30:45.097Z,78.87
2022-12-01T02:33:23.379Z,68.30
2022-12-01T02:36:17.808Z,82.50
2022-12-01T02:39:12.182Z,79.97
2022-12-01T02:41:52.640Z,79.40
2022-12-01T02:44:38.958Z,77.43
2022-12-01T02:49:49.639Z,74.68
2022-12-01T02:52:18.905Z,80.10
2022-12-01T02:54:48.785Z,74.40
2022-12-01T02:57:17.164Z,77.23
2022-12-01T02:59:51.256Z,73.40
2022-12-01T03:02:28.686Z,80.43
2022-12-01T03:05:05.384Z,80.10
2022-12-01T03:08:01.742Z,78.03
2022-12-01T03:10:47.213Z,71.88
2022-12-01T03:13:49.416Z,78.70
2022-12-01T03:16:33.725Z,67.53
2022-12-01T03:19:14.632Z,76.87
2022-12-01T03:22:11.611Z,72.90
2022-12-01T03:24:41.284Z,69.50
2022-12-01T03:27:11.503Z,73.83
2022-12-01T03:29:48.396Z,79.47
2022-12-01T03:32:23.735Z,76.17
2022-12-01T03:35:04.476Z,85.63
2022-12-01T03:37:45.801Z,83.50
2022-12-01T03:40:19.426Z,71.97
2022-12-01T03:42:59.468Z,77.67
2022-12-01T03:46:12.509Z,69.60
2022-12-01T03:48:41.475Z,69.50
2022-12-01T03:51:22.197Z,73.77
2022-12-01T03:54:27.448Z,68.27
2022-12-01T03:57:00.432Z,72.03
2022-12-01T03:59:30.001Z,81.27
2022-12-01T04:01:58.304Z,82.30
2022-12-01T04:04:25.393Z,73.33
2022-12-01T04:06:53.774Z,76.53
2022-12-01T04:09:20.798Z,72.87
2022-12-01T04:12:06.695Z,82.63
2022-12-01T04:14:33.786Z,74.40
2022-12-01T04:17:00.918Z,74.33
2022-12-01T04:19:27.991Z,76.03
2022-12-01T04:21:55.051Z,72.97
2022-12-01T04:24:22.103Z,70.77
2022-12-01T04:26:49.162Z,70.13
2022-12-01T04:29:16.341Z,71.30
2022-12-01T04:31:43.490Z,75.03
2022-12-01T04:34:11.175Z,83.10
2022-12-01T04:36:38.573Z,77.47
2022-12-01T04:39:05.846Z,72.73
2022-12-01T04:41:32.891Z,72.47
2022-12-01T04:43:59.962Z,79.90
2022-12-01T04:46:27.132Z,79.70
2022-12-01T04:48:54.210Z,80.23
2022-12-01T04:51:22.423Z,74.97
2022-12-01T04:53:50.704Z,82.43
2022-12-01T04:56:18.251Z,80.23
2022-12-01T04:58:45.484Z,82.70
2022-12-01T05:01:15.229Z,71.93
2022-12-01T05:03:46.493Z,78.30
2022-12-01T05:06:17.735Z,82.97
2022-12-01T05:08:44.843Z,80.03
2022-12-01T05:11:13.629Z,78.17
2022-12-01T05:13:43.828Z,82.07
2022-12-01T05:16:24.290Z,72.47
2022-12-01T05:19:14.786Z,69.43
2022-12-01T05:21:43.570Z,81.97
2022-12-01T05:24:12.722Z,86.10
2022-12-01T05:26:42.351Z,79.43
2022-12-01T05:29:10.157Z,71.80
2022-12-01T05:31:37.384Z,86.90
2022-12-01T05:34:04.539Z,80.43
2022-12-01T05:36:32.603Z,79.07
2022-12-01T05:38:59.693Z,73.67
2022-12-01T05:41:26.744Z,79.53
2022-12-01T05:43:53.765Z,75.07
2022-12-01T05:46:22.045Z,85.57
2022-12-01T05:48:49.226Z,80.97
2022-12-01T05:51:17.968Z,78.40
2022-12-01T05:53:45.367Z,80.87
2022-12-01T05:56:12.897Z,72.43
2022-12-01T05:58:39.988Z,74.13
2022-12-01T06:01:07.164Z,76.67
2022-12-01T06:03:34.331Z,76.00
2022-12-01T06:06:01.757Z,72.47
2022-12-01T06:08:28.861Z,83.87
2022-12-01T06:10:55.961Z,74.37
2022-12-01T06:13:23.217Z,83.60
2022-12-01T06:16:16.578Z,93.27
2022-12-01T06:18:43.704Z,91.80
2022-12-01T06:21:10.738Z,92.53
2022-12-01T06:23:38.622Z,90.23
2022-12-01T06:26:05.824Z,81.60
2022-12-01T06:28:32.939Z,84.87
2022-12-01T06:31:03.463Z,80.17
2022-12-01T06:33:31.978Z,80.17
2022-12-01T06:36:00.956Z,84.60
2022-12-01T06:38:33.048Z,89.37
2022-12-01T06:41:01.331Z,79.73
2022-12-01T06:43:28.814Z,81.27
2022-12-01T06:46:01.157Z,85.63
2022-12-01T06:48:30.955Z,73.90
2022-12-01T06:51:00.146Z,85.27
2022-12-01T06:53:28.657Z,82.83
2022-12-01T06:56:02.046Z,77.03
2022-12-01T06:58:29.548Z,79.80
2022-12-01T07:00:58.794Z,71.53
2022-12-01T07:03:26.498Z,82.53
2022-12-01T07:05:59.924Z,79.33
2022-12-01T07:08:28.917Z,83.57
2022-12-01T07:11:04.986Z,79.17
2022-12-01T07:13:33.931Z,74.83
2022-12-01T07:16:06.054Z,73.77
2022-12-01T07:18:34.781Z,85.53
2022-12-01T07:21:04.988Z,80.87
2022-12-01T07:23:32.195Z,76.17
2022-12-01T07:26:23.101Z,75.07
2022-12-01T07:28:50.172Z,83.17
2022-12-01T07:31:19.409Z,79.03
2022-12-01T07:33:49.242Z,75.50
2022-12-01T07:36:16.479Z,91.60
2022-12-01T07:38:43.650Z,84.33
2022-12-01T07:41:19.470Z,84.77
2022-12-01T07:46:23.163Z,76.43
2022-12-01T07:48:52.573Z,75.60
2022-12-01T07:51:21.405Z,78.03
2022-12-01T07:53:50.842Z,69.40
2022-12-01T07:56:19.530Z,72.80
2022-12-01T07:58:46.748Z,77.87
2022-12-01T08:01:17.731Z,77.80
2022-12-01T08:03:45.313Z,72.00
2022-12-01T08:06:13.047Z,81.13
2022-12-01T08:08:41.436Z,74.87
2022-12-01T08:11:13.679Z,75.33
2022-12-01T08:13:42.366Z,85.27
2022-12-01T08:16:13.087Z,73.20
2022-12-01T08:18:41.891Z,75.57
2022-12-01T08:21:15.232Z,81.50
2022-12-01T08:23:43.803Z,81.27
2022-12-01T08:26:19.303Z,91.20
2022-12-01T08:28:47.555Z,72.10
2022-12-01T08:31:32.981Z,88.67
2022-12-01T08:34:00.219Z,74.30
2022-12-01T08:36:27.382Z,74.60
2022-12-01T08:38:56.363Z,73.67
2022-12-01T08:41:24.699Z,80.13
2022-12-01T08:44:00.438Z,73.47
2022-12-01T08:46:34.252Z,73.60
2022-12-01T08:49:03.888Z,78.67
2022-12-01T08:51:31.412Z,71.97
2022-12-01T08:53:59.798Z,74.37
2022-12-01T08:56:35.220Z,75.80
2022-12-01T08:59:02.506Z,79.18
2022-12-01T09:01:29.702Z,77.23
2022-12-01T09:04:10.461Z,77.27
2022-12-01T09:06:42.722Z,79.63
2022-12-01T09:09:18.872Z,72.97
2022-12-01T09:11:47.422Z,80.27
2022-12-01T09:14:18.770Z,79.90
2022-12-01T09:16:49.750Z,87.20
2022-12-01T09:19:24.003Z,83.93
2022-12-01T09:21:52.482Z,75.97
2022-12-01T09:24:19.614Z,75.13
2022-12-01T09:26:46.738Z,77.20
2022-12-01T09:29:16.592Z,76.20
2022-12-01T09:31:43.809Z,71.15
2022-12-01T09:34:19.865Z,69.90
2022-12-01T09:36:48.064Z,71.97
2022-12-01T09:39:21.126Z,77.05
2022-12-01T09:42:07.629Z,84.30
2022-12-01T09:44:51.611Z,77.20
2022-12-01T09:47:22.031Z,78.43
2022-12-01T09:50:07.316Z,75.40
2022-12-01T09:52:47.933Z,75.40
2022-12-01T09:55:23.417Z,73.57
2022-12-01T09:57:57.500Z,81.55
2022-12-01T10:00:31.293Z,72.35
2022-12-01T10:03:48.409Z,74.27
2022-12-01T10:06:37.831Z,76.38
2022-12-01T10:09:22.798Z,76.03
2022-12-01T10:11:55.271Z,71.47
2022-12-01T10:14:22.536Z,72.37
2022-12-01T10:17:18.210Z,70.63
2022-12-01T10:19:50.881Z,71.77
2022-12-01T10:22:57.258Z,69.60
2022-12-01T10:25:31.637Z,71.40
2022-12-01T10:28:36.277Z,70.60
2022-12-01T10:31:51.297Z,72.55
2022-12-01T10:34:23.840Z,73.37
2022-12-01T10:36:51.302Z,68.83
2022-12-01T10:39:35.195Z,76.00
2022-12-01T10:42:14.912Z,77.65
2022-12-01T10:44:43.237Z,75.90
2022-12-01T10:47:23.616Z,82.28
2022-12-01T10:49:51.058Z,62.90
2022-12-01T10:52:38.956Z,75.32
2022-12-01T10:55:29.381Z,75.17
2022-12-01T10:58:03.434Z,66.30
2022-12-01T11:00:59.002Z,76.00
2022-12-01T11:03:33.880Z,73.35
2022-12-01T11:06:05.388Z,72.93
2022-12-01T11:08:40.459Z,67.88
2022-12-01T11:11:30.321Z,68.18
2022-12-01T11:14:01.713Z,65.75
2022-12-01T11:16:44.725Z,74.90
2022-12-01T11:19:23.473Z,72.60
2022-12-01T11:22:26.239Z,69.30
2022-12-01T11:24:53.247Z,71.50
2022-12-01T11:27:23.322Z,73.82
2022-12-01T11:29:55.961Z,63.75
2022-12-01T11:32:30.280Z,68.00
2022-12-01T11:35:09.473Z,64.70
2022-12-01T11:37:50.473Z,64.30
2022-12-01T11:40:36.151Z,68.57
2022-12-01T11:45:40.512Z,68.38
2022-12-01T11:48:15.372Z,60.95
2022-12-01T11:50:59.563Z,60.55
2022-12-01T11:53:37.491Z,62.80
2022-12-01T11:56:37.167Z,57.92
2022-12-01T11:59:21.773Z,65.20
2022-12-01T12:02:46.401Z,61.55
2022-12-01T12:05:22.637Z,66.53
2022-12-01T12:08:15.752Z,64.25
2022-12-01T12:11:17.826Z,65.07
2022-12-01T12:14:18.011Z,63.13
2022-12-01T12:17:18.603Z,56.92
2022-12-01T12:20:11.300Z,65.32
2022-12-01T12:23:13.195Z,58.88
2022-12-01T12:26:24.642Z,66.97
2022-12-01T12:28:51.558Z,64.88
2022-12-01T12:32:03.032Z,65.35
2022-12-01T12:34:59.939Z,64.47
2022-12-01T12:37:38.745Z,60.28
2022-12-01T12:40:20.709Z,58.83
2022-12-01T12:43:19.934Z,54.72
2022-12-01T12:46:16.806Z,57.97
2022-12-01T12:49:26.021Z,60.25
2022-12-01T12:52:12.462Z,55.28
2022-12-01T12:54:50.446Z,55.50
2022-12-01T12:57:44.510Z,57.90
2022-12-01T13:00:20.812Z,52.45
2022-12-01T13:03:10.121Z,55.00
2022-12-01T13:06:04.555Z,59.75
2022-12-01T13:08:48.360Z,54.42
2022-12-01T13:11:29.652Z,52.15
2022-12-01T13:14:15.336Z,55.35
2022-12-01T13:16:48.138Z,50.72
2022-12-01T13:19:33.670Z,54.35
2022-12-01T13:22:02.264Z,60.25
2022-12-01T13:24:31.302Z,53.30
2022-12-01T13:27:11.113Z,55.95
2022-12-01T13:29:53.297Z,55.90
2022-12-01T13:32:30.934Z,59.13
2022-12-01T13:34:59.539Z,56.28
2022-12-01T13:37:35.752Z,58.33
2022-12-01T13:40:28.058Z,53.63
2022-12-01T13:43:10.472Z,55.72
2022-12-01T13:45:40.325Z,55.88
2022-12-01T13:48:37.890Z,46.35
2022-12-01T13:51:05.208Z,50.88
2022-12-01T13:53:37.833Z,55.55
2022-12-01T13:56:16.616Z,58.45
2022-12-01T13:58:53.991Z,50.58
2022-12-01T14:01:21.474Z,52.17
2022-12-01T14:04:12.748Z,53.65
2022-12-01T14:07:10.404Z,57.38
2022-12-01T14:09:41.009Z,55.75
2022-12-01T14:12:11.217Z,52.17
2022-12-01T14:14:44.858Z,50.13
2022-12-01T14:17:34.950Z,48.15
2022-12-01T14:20:22.308Z,55.50
2022-12-01T14:23:24.189Z,52.53
2022-12-01T14:26:20.882Z,52.42
2022-12-01T14:31:33.221Z,45.95
2022-12-01T14:34:06.440Z,54.67
2022-12-01T14:37:06.638Z,58.95
2022-12-01T14:39:38.648Z,48.78
2022-12-01T14:42:11.629Z,52.92
2022-12-01T14:44:55.077Z,53.53
2022-12-01T14:47:42.258Z,49.40
2022-12-01T14:50:23.147Z,56.30
2022-12-01T14:52:58.285Z,51.85
2022-12-01T14:55:41.735Z,53.20
2022-12-01T14:58:23.659Z,51.42
2022-12-01T15:01:12.594Z,52.28
2022-12-01T15:03:51.832Z,56.67
2022-12-01T15:06:27.616Z,55.85
2022-12-01T15:09:35.481Z,54.15
2022-12-01T15:12:09.158Z,53.97
2022-12-01T15:14:49.033Z,59.40
2022-12-01T15:17:34.728Z,56.53
2022-12-01T15:20:01.911Z,53.93
2022-12-01T15:22:34.219Z,63.83
2022-12-01T15:25:14.468Z,56.43
2022-12-01T15:27:43.884Z,53.53
2022-12-01T15:30:18.886Z,68.05
2022-12-01T15:32:46.259Z,67.40
2022-12-01T15:35:22.717Z,55.40
2022-12-01T15:37:51.934Z,56.30
2022-12-01T15:41:06.119Z,56.93
2022-12-01T15:43:30.158Z,56.43
2022-12-01T15:46:11.402Z,55.93
2022-12-01T15:48:38.876Z,67.60
2022-12-01T15:51:12.106Z,57.50
2022-12-01T15:53:54.060Z,62.30
2022-12-01T15:56:38.066Z,65.13
2022-12-01T15:59:24.035Z,63.97
2022-12-01T16:01:51.454Z,60.25
2022-12-01T16:04:35.544Z,59.70
2022-12-01T16:07:10.706Z,58.20
2022-12-01T16:09:54.954Z,63.05
2022-12-01T16:12:33.228Z,61.70
2022-12-01T16:15:00.469Z,59.43
2022-12-01T16:17:40.955Z,62.63
2022-12-01T16:20:31.022Z,60.78
2022-12-01T16:23:15.591Z,63.93
2022-12-01T16:25:47.417Z,55.90
2022-12-01T16:28:37.782Z,68.97
2022-12-01T16:31:10.178Z,59.17
2022-12-01T16:33:40.011Z,56.33
2022-12-01T16:36:07.678Z,49.23
2022-12-01T16:38:34.836Z,54.20
2022-12-01T16:41:14.947Z,58.50
2022-12-01T16:43:59.180Z,56.90
2022-12-01T16:46:31.225Z,48.33
2022-12-01T16:48:58.628Z,55.70
2022-12-01T16:51:35.578Z,50.43
2022-12-01T16:54:13.647Z,51.57
2022-12-01T16:56:41.096Z,56.30
2022-12-01T16:59:08.492Z,55.00
2022-12-01T17:01:37.800Z,57.03
2022-12-01T17:04:07.776Z,62.43
2022-12-01T17:06:36.240Z,55.13
2022-12-01T17:09:03.762Z,53.03
2022-12-01T17:11:31.131Z,48.90
2022-12-01T17:13:58.496Z,47.87
2022-12-01T17:16:26.234Z,47.83
2022-12-01T17:18:56.206Z,54.87
2022-12-01T17:21:23.587Z,52.00
2022-12-01T17:23:51.455Z,52.23
2022-12-01T17:26:20.769Z,52.97
2022-12-01T17:28:51.632Z,52.33
2022-12-01T17:31:19.292Z,58.03
2022-12-01T17:33:47.126Z,62.20
2022-12-01T17:36:15.659Z,57.05
2022-12-01T17:38:46.830Z,50.73
2022-12-01T17:41:21.985Z,60.43
2022-12-01T17:43:49.303Z,51.28
2022-12-01T17:46:18.215Z,54.80
2022-12-01T17:48:47.374Z,51.90
2022-12-01T17:51:20.906Z,51.33
2022-12-01T17:53:50.074Z,56.00
2022-12-01T17:56:17.829Z,51.90
2022-12-01T17:58:45.460Z,53.23
2022-12-01T18:01:19.242Z,48.67
2022-12-01T18:03:48.721Z,52.47
2022-12-01T18:06:17.746Z,54.27
2022-12-01T18:08:45.389Z,56.90
2022-12-01T18:11:16.330Z,46.20
2022-12-01T18:13:50.086Z,44.30
2022-12-01T18:16:26.156Z,52.87
2022-12-01T18:18:55.369Z,53.63
2022-12-01T18:21:24.617Z,52.10
2022-12-01T18:23:56.509Z,50.97
2022-12-01T18:26:26.244Z,54.13
2022-12-01T18:29:00.615Z,59.40
2022-12-01T18:31:30.872Z,56.27
2022-12-01T18:34:03.162Z,50.73
2022-12-01T18:36:34.395Z,51.80
2022-12-01T18:39:04.286Z,54.40
2022-12-01T18:41:34.086Z,53.03
2022-12-01T18:44:01.775Z,52.83
2022-12-01T18:46:30.196Z,46.67
2022-12-01T18:49:03.427Z,49.57
2022-12-01T18:51:39.417Z,55.27
2022-12-01T18:54:11.272Z,55.63
2022-12-01T18:56:39.205Z,47.70
2022-12-01T18:59:10.954Z,53.10
2022-12-01T19:01:43.924Z,52.73
2022-12-01T19:04:13.007Z,53.63
2022-12-01T19:06:43.186Z,51.53
2022-12-01T19:09:14.471Z,53.93
2022-12-01T19:11:43.711Z,52.87
2022-12-01T19:14:18.384Z,48.27
2022-12-01T19:16:47.804Z,48.67
2022-12-01T19:19:16.460Z,51.83
2022-12-01T19:21:45.958Z,50.37
2022-12-01T19:24:15.151Z,52.57
2022-12-01T19:26:44.542Z,54.53
2022-12-01T19:29:13.524Z,50.43
2022-12-01T19:31:41.505Z,48.43
2022-12-01T19:34:10.662Z,49.70
2022-12-01T19:36:41.861Z,54.27
2022-12-01T19:39:11.915Z,48.10
2022-12-01T19:41:40.422Z,52.77
2022-12-01T19:44:10.864Z,55.63
2022-12-01T19:46:40.853Z,55.80
2022-12-01T19:49:10.687Z,56.43
2022-12-01T19:51:40.600Z,56.97
2022-12-01T19:54:20.206Z,53.50
2022-12-01T19:56:49.480Z,57.30
2022-12-01T19:59:17.585Z,51.67
2022-12-01T20:01:45.845Z,52.50
2022-12-01T20:04:15.452Z,54.20
2022-12-01T20:06:43.798Z,55.43
2022-12-01T20:09:11.717Z,55.90
2022-12-01T20:11:39.774Z,55.87
2022-12-01T20:14:11.324Z,54.67
2022-12-01T20:16:38.986Z,48.30
2022-12-01T20:19:07.757Z,55.50
2022-12-01T20:21:42.739Z,56.67
2022-12-01T20:24:20.455Z,53.53
2022-12-01T20:26:57.807Z,53.10
2022-12-01T20:29:29.834Z,53.23
2022-12-01T20:32:02.915Z,49.97
2022-12-01T20:34:36.698Z,51.60
2022-12-01T20:37:05.443Z,54.80
2022-12-01T20:39:35.762Z,51.33
2022-12-01T20:42:04.209Z,55.63
2022-12-01T20:44:32.539Z,55.23
2022-12-01T20:47:01.141Z,56.10
2022-12-01T20:49:29.604Z,52.93
2022-12-01T20:51:58.255Z,50.50
2022-12-01T20:54:28.303Z,50.97
2022-12-01T20:56:59.170Z,52.50
2022-12-01T20:59:27.710Z,48.90
2022-12-01T21:01:55.892Z,51.70
2022-12-01T21:04:23.548Z,59.67
2022-12-01T21:06:54.760Z,55.33
2022-12-01T21:09:22.385Z,55.23
2022-12-01T21:12:09.796Z,55.63
2022-12-01T21:14:37.587Z,54.30
2022-12-01T21:17:13.590Z,53.87
2022-12-01T21:20:27.488Z,54.87
2022-12-01T21:22:58.654Z,51.00
2022-12-01T21:25:26.488Z,55.50
2022-12-01T21:27:57.253Z,51.87
2022-12-01T21:30:26.471Z,57.07
2022-12-01T21:32:54.760Z,57.30
2022-12-01T21:35:24.951Z,57.50
2022-12-01T21:38:00.580Z,50.20
2022-12-01T21:40:28.840Z,49.08
2022-12-01T21:43:01.521Z,58.83
2022-12-01T21:45:34.693Z,56.93
2022-12-01T21:48:17.916Z,55.67
2022-12-01T21:50:50.872Z,55.73
2022-12-01T21:53:21.622Z,59.70
2022-12-01T21:55:49.394Z,52.37
2022-12-01T21:58:30.808Z,52.73
2022-12-01T22:00:59.556Z,59.03
2022-12-01T22:03:39.765Z,51.50
2022-12-01T22:09:02.776Z,60.60
2022-12-01T22:11:31.104Z,53.10
2022-12-01T22:14:17.325Z,58.93
2022-12-01T22:19:37.492Z,58.50
2022-12-01T22:22:26.239Z,58.00
2022-12-01T22:25:07.286Z,54.03
2022-12-01T22:27:43.335Z,55.67
2022-12-01T22:30:10.347Z,48.83
2022-12-01T22:32:44.345Z,52.33
2022-12-01T22:35:28.961Z,58.97
2022-12-01T22:38:05.929Z,52.50
2022-12-01T22:40:48.368Z,53.07
2022-12-01T22:43:15.879Z,58.03
2022-12-01T22:46:17.526Z,60.73
2022-12-01T22:49:10.450Z,59.53
2022-12-01T22:51:40.219Z,54.03
2022-12-01T22:54:10.068Z,60.90
2022-12-01T22:57:24.507Z,56.13
2022-12-01T22:59:52.068Z,59.73
2022-12-01T23:02:25.224Z,57.03
2022-12-01T23:05:00.566Z,59.13
2022-12-01T23:07:36.441Z,56.33
2022-12-01T23:10:39.037Z,52.70
2022-12-01T23:13:24.392Z,52.07
2022-12-01T23:15:55.894Z,54.75
2022-12-01T23:18:32.010Z,59.50
2022-12-01T23:21:02.627Z,54.77
2022-12-01T23:23:36.578Z,55.13
2022-12-01T23:26:08.487Z,55.77
2022-12-01T23:28:38.677Z,60.70
2022-12-01T23:31:06.062Z,57.90
2022-12-01T23:33:35.392Z,57.13
2022-12-01T23:36:27.727Z,56.70
2022-12-01T23:39:04.564Z,57.00
2022-12-01T23:41:39.023Z,58.33
2022-12-01T23:44:45.480Z,54.73
2022-12-01T23:47:22.711Z,57.17
2022-12-01T23:50:00.191Z,52.40
2022-12-01T23:52:35.167Z,60.97
2022-12-01T23:55:16.868Z,58.05
2022-12-01T23:57:44.010Z,55.20
